Pascola, Missouri
Current Conditions -  °F | °C
As of 11:53 AM on Friday 24 Oct 2014 (Local Time) from KHKA Reporting Station
Broken Clouds Broken Clouds  
Wind Chill: 69°   Ceiling: 4300
Heat Index: 69°   Visibility: 10mi
Dew Point: 49°   Wind: 5mph
Humidity: 49%   Direction: NA
Pressure: 30.15"   Gusts: NA
Location:  36.27°N, 89.83°W
Report Text: KHKA 241653Z AUTO VRB04KT 10SM BKN043 21/09 A3015 RMK AO2 SLP207 T02060094
Loading
Personal Weather Stations






























Interactive Weather Map New forecast layout! Learn more

10-Day Weather Forecast

Advertisements
Track Severe Weather on mobile